createdAt,value
2022-10-19T00:15:59.512Z,12.10
2022-10-19T00:19:13.087Z,15.57
2022-10-19T00:23:02.925Z,15.93
2022-10-19T00:26:41.912Z,17.50
2022-10-19T00:30:16.077Z,17.90
2022-10-19T00:32:57.540Z,23.40
2022-10-19T00:36:12.893Z,27.50
2022-10-19T00:42:42.180Z,16.43
2022-10-19T00:45:17.295Z,17.80
2022-10-19T00:47:49.081Z,16.00
2022-10-19T00:50:22.174Z,16.43
2022-10-19T00:52:57.275Z,21.20
2022-10-19T00:55:27.504Z,16.70
2022-10-19T00:57:55.876Z,11.83
2022-10-19T01:00:31.605Z,21.67
2022-10-19T01:03:38.821Z,17.70
2022-10-19T01:06:17.257Z,14.13
2022-10-19T01:08:46.234Z,20.07
2022-10-19T01:11:33.780Z,14.43
2022-10-19T01:14:41.916Z,22.37
2022-10-19T01:18:17.585Z,25.27
2022-10-19T01:21:56.735Z,26.47
2022-10-19T01:24:51.960Z,25.50
2022-10-19T01:27:54.548Z,33.10
2022-10-19T01:30:41.260Z,23.53
2022-10-19T01:33:26.789Z,21.93
2022-10-19T01:36:05.451Z,33.40
2022-10-19T01:38:38.642Z,24.83
2022-10-19T01:41:16.011Z,26.23
2022-10-19T01:43:52.051Z,25.90
2022-10-19T01:46:29.468Z,19.20
2022-10-19T01:49:03.910Z,27.37
2022-10-19T01:51:35.191Z,24.40
2022-10-19T01:54:08.343Z,19.77
2022-10-19T01:56:38.715Z,20.00
2022-10-19T01:59:10.349Z,19.13
2022-10-19T02:01:43.310Z,22.23
2022-10-19T02:04:13.253Z,16.30
2022-10-19T02:06:41.977Z,16.93
2022-10-19T02:09:10.224Z,15.90
2022-10-19T02:12:20.372Z,13.10
2022-10-19T02:20:06.429Z,14.27
2022-10-19T02:39:10.185Z,11.27
2022-10-19T03:07:23.251Z,13.23
2022-10-19T03:09:51.681Z,9.97
2022-10-19T03:12:19.970Z,12.70
2022-10-19T03:14:48.350Z,11.50
2022-10-19T03:17:16.952Z,14.77
2022-10-19T03:19:45.403Z,12.40
2022-10-19T03:22:14.909Z,10.77
2022-10-19T03:24:44.549Z,12.23
2022-10-19T03:27:12.758Z,13.23
2022-10-19T03:29:41.267Z,16.10
2022-10-19T03:32:10.223Z,14.67
2022-10-19T03:34:38.607Z,12.10
2022-10-19T03:37:13.749Z,10.10
2022-10-19T03:39:44.541Z,18.07
2022-10-19T03:42:25.663Z,16.70
2022-10-19T03:45:07.705Z,10.43
2022-10-19T03:51:43.291Z,18.53
2022-10-19T03:54:27.272Z,12.83
2022-10-19T03:57:26.827Z,10.33
2022-10-19T03:59:54.848Z,18.10
2022-10-19T04:02:22.967Z,14.33
2022-10-19T04:04:51.068Z,14.53
2022-10-19T04:07:19.299Z,12.90
2022-10-19T04:09:47.438Z,16.47
2022-10-19T04:12:15.588Z,10.53
2022-10-19T04:14:56.743Z,10.07
2022-10-19T04:17:26.446Z,8.90
2022-10-19T04:19:54.492Z,15.93
2022-10-19T04:22:22.582Z,12.17
2022-10-19T04:24:51.826Z,13.80
2022-10-19T04:27:20.156Z,15.33
2022-10-19T04:29:49.563Z,24.03
2022-10-19T04:32:17.734Z,8.50
2022-10-19T04:34:45.849Z,15.37
2022-10-19T04:37:14.021Z,10.70
2022-10-19T04:39:43.447Z,11.03
2022-10-19T04:42:11.632Z,10.83
2022-10-19T04:44:39.887Z,9.90
2022-10-19T04:47:09.458Z,7.77
2022-10-19T04:49:37.608Z,13.70
2022-10-19T04:52:05.826Z,12.20
2022-10-19T04:54:33.835Z,16.60
2022-10-19T04:57:01.993Z,12.20
2022-10-19T04:59:30.062Z,11.47
2022-10-19T05:01:58.174Z,14.40
2022-10-19T05:04:27.698Z,16.57
2022-10-19T05:06:56.062Z,16.03
2022-10-19T05:09:24.354Z,15.60
2022-10-19T05:11:52.434Z,12.07
2022-10-19T05:14:20.591Z,14.50
2022-10-19T05:16:48.697Z,11.67
2022-10-19T05:19:16.886Z,15.27
2022-10-19T05:21:46.352Z,20.73
2022-10-19T05:24:14.519Z,19.90
2022-10-19T05:26:42.614Z,15.13
2022-10-19T05:29:13.126Z,13.07
2022-10-19T05:31:41.674Z,19.27
2022-10-19T05:34:10.927Z,19.50
2022-10-19T05:36:41.178Z,26.33
2022-10-19T05:39:14.350Z,19.53
2022-10-19T05:41:44.761Z,30.43
2022-10-19T05:44:17.196Z,25.63
2022-10-19T05:46:45.540Z,27.70
2022-10-19T05:49:16.812Z,22.03
2022-10-19T05:51:47.049Z,26.80
2022-10-19T05:54:16.908Z,19.17
2022-10-19T05:56:45.095Z,26.97
2022-10-19T05:59:16.501Z,29.00
2022-10-19T06:01:46.926Z,20.60
2022-10-19T06:06:44.348Z,24.33
2022-10-19T06:09:12.982Z,40.17
2022-10-19T06:11:44.451Z,23.57
2022-10-19T06:14:20.174Z,26.87
2022-10-19T06:16:50.354Z,33.30
2022-10-19T06:19:21.351Z,24.10
2022-10-19T06:21:49.700Z,22.37
2022-10-19T06:24:18.024Z,26.40
2022-10-19T06:26:49.844Z,16.07
2022-10-19T06:29:17.956Z,19.57
2022-10-19T06:31:46.690Z,26.00
2022-10-19T06:34:14.769Z,19.40
2022-10-19T06:36:42.984Z,20.93
2022-10-19T06:39:11.184Z,19.77
2022-10-19T06:41:39.378Z,22.80
2022-10-19T06:44:27.841Z,21.30
2022-10-19T06:46:56.019Z,18.13
2022-10-19T06:49:24.162Z,26.67
2022-10-19T06:51:52.301Z,21.30
2022-10-19T06:54:20.554Z,21.63
2022-10-19T06:59:17.911Z,17.20
2022-10-19T07:01:47.364Z,16.17
2022-10-19T07:04:15.516Z,15.00
2022-10-19T07:06:43.647Z,17.47
2022-10-19T07:09:11.832Z,14.57
2022-10-19T07:11:45.516Z,12.13
2022-10-19T07:14:14.411Z,19.27
2022-10-19T07:16:42.547Z,15.03
2022-10-19T07:19:13.449Z,11.50
2022-10-19T07:21:42.952Z,20.33
2022-10-19T07:24:11.398Z,8.00
2022-10-19T07:26:39.506Z,10.03
2022-10-19T07:29:07.642Z,18.00
2022-10-19T07:31:36.034Z,14.33
2022-10-19T07:34:06.156Z,15.10
2022-10-19T07:36:37.024Z,19.10
2022-10-19T07:39:06.549Z,13.40
2022-10-19T07:41:37.715Z,10.53
2022-10-19T07:44:06.280Z,10.33
2022-10-19T07:46:36.961Z,11.57
2022-10-19T07:49:10.071Z,13.60
2022-10-19T07:51:41.232Z,15.43
2022-10-19T07:54:09.619Z,18.63
2022-10-19T07:56:38.184Z,6.13
2022-10-19T07:59:06.557Z,9.37
2022-10-19T08:01:37.046Z,11.10
2022-10-19T08:04:55.415Z,4.90
2022-10-19T08:06:56.919Z,7.20
2022-10-19T08:09:52.316Z,10.20
2022-10-19T08:12:19.929Z,6.43
2022-10-19T08:14:48.614Z,3.33
2022-10-19T08:17:18.668Z,3.20
2022-10-19T08:19:48.517Z,3.80
2022-10-19T08:22:17.950Z,4.73
2022-10-19T08:24:46.167Z,3.80
2022-10-19T08:27:17.115Z,4.00
2022-10-19T08:29:45.393Z,2.60
2022-10-19T08:32:13.831Z,6.57
2022-10-19T08:34:42.065Z,5.03
2022-10-19T08:37:20.152Z,9.27
2022-10-19T08:40:00.053Z,6.90
2022-10-19T08:42:40.981Z,3.57
2022-10-19T08:45:33.611Z,5.60
2022-10-19T08:48:17.154Z,5.60
2022-10-19T08:50:46.893Z,4.73
2022-10-19T08:53:17.581Z,3.13
2022-10-19T08:56:04.448Z,3.27
2022-10-19T08:58:50.575Z,6.93
2022-10-19T09:01:33.808Z,3.67
2022-10-19T09:04:09.247Z,3.07
2022-10-19T09:06:48.535Z,4.77
2022-10-19T09:09:19.637Z,2.40
2022-10-19T09:11:52.219Z,2.63
2022-10-19T09:14:26.791Z,3.03
2022-10-19T09:16:57.452Z,5.90
2022-10-19T09:19:30.800Z,4.53
2022-10-19T09:22:02.487Z,3.17
2022-10-19T09:24:36.066Z,4.63
2022-10-19T09:27:08.645Z,6.33
2022-10-19T09:29:41.311Z,3.20
2022-10-19T09:32:15.837Z,2.50
2022-10-19T09:34:46.284Z,3.50
2022-10-19T09:37:20.176Z,1.87
2022-10-19T09:39:54.132Z,8.33
2022-10-19T09:42:29.160Z,6.63
2022-10-19T09:44:59.457Z,3.40
2022-10-19T09:47:38.798Z,8.43
2022-10-19T09:50:15.260Z,3.57
2022-10-19T09:52:44.377Z,4.37
2022-10-19T09:55:24.021Z,4.10
2022-10-19T09:58:02.993Z,5.23
2022-10-19T10:00:37.619Z,11.53
2022-10-19T10:03:07.564Z,0.97
2022-10-19T10:05:38.525Z,5.50
2022-10-19T10:08:14.393Z,4.30
2022-10-19T10:10:46.045Z,10.37
2022-10-19T10:13:18.994Z,4.50
2022-10-19T10:15:52.103Z,2.10
2022-10-19T10:18:20.622Z,7.30
2022-10-19T10:21:01.697Z,4.83
2022-10-19T10:23:36.211Z,3.43
2022-10-19T10:26:06.823Z,4.87
2022-10-19T10:28:48.153Z,9.73
2022-10-19T10:31:20.429Z,4.80
2022-10-19T10:33:55.563Z,7.60
2022-10-19T10:36:25.859Z,1.90
2022-10-19T10:38:58.638Z,4.43
2022-10-19T10:41:29.764Z,5.87
2022-10-19T10:44:04.843Z,3.40
2022-10-19T10:46:37.931Z,6.13
2022-10-19T10:49:08.255Z,2.83
2022-10-19T10:51:41.480Z,3.07
2022-10-19T10:54:20.997Z,2.83
2022-10-19T10:57:15.679Z,11.20
2022-10-19T10:59:56.209Z,4.53
2022-10-19T11:02:46.891Z,2.83
2022-10-19T11:05:21.513Z,5.67
2022-10-19T11:07:53.242Z,2.50
2022-10-19T11:10:29.287Z,4.40
2022-10-19T11:13:05.421Z,2.87
2022-10-19T11:15:40.351Z,5.70
2022-10-19T11:18:18.851Z,3.60
2022-10-19T11:20:56.215Z,1.93
2022-10-19T11:23:38.216Z,7.20
2022-10-19T11:26:21.157Z,1.33
2022-10-19T11:29:01.930Z,6.80
2022-10-19T11:31:39.660Z,3.97
2022-10-19T11:34:16.097Z,3.57
2022-10-19T11:36:52.410Z,10.20
2022-10-19T11:39:39.865Z,1.80
2022-10-19T11:42:17.318Z,3.40
2022-10-19T11:44:58.055Z,6.80
2022-10-19T11:47:51.046Z,7.50
2022-10-19T11:50:32.088Z,0.90
2022-10-19T11:53:08.955Z,4.17
2022-10-19T11:55:42.162Z,5.07
2022-10-19T11:58:25.421Z,4.97
2022-10-19T12:01:01.226Z,0.73
2022-10-19T12:03:52.098Z,2.20
2022-10-19T12:06:26.763Z,0.80
2022-10-19T12:09:09.889Z,2.90
2022-10-19T12:11:50.890Z,5.33
2022-10-19T12:14:25.549Z,2.00
2022-10-19T12:16:57.309Z,3.80
2022-10-19T12:19:29.917Z,3.23
2022-10-19T12:22:02.686Z,1.53
2022-10-19T12:24:33.511Z,1.50
2022-10-19T12:27:02.902Z,1.33
2022-10-19T12:29:34.967Z,1.97
2022-10-19T12:32:05.925Z,6.30
2022-10-19T12:34:47.494Z,2.20
2022-10-19T12:37:23.891Z,1.97
2022-10-19T12:39:58.986Z,0.73
2022-10-19T12:42:32.038Z,1.70
2022-10-19T12:45:18.405Z,0.80
2022-10-19T12:48:24.579Z,3.43
2022-10-19T12:51:13.510Z,5.33
2022-10-19T12:53:44.613Z,3.80
2022-10-19T12:56:25.191Z,0.50
2022-10-19T12:58:57.708Z,3.33
2022-10-19T13:01:29.184Z,1.73
2022-10-19T13:04:13.783Z,4.50
2022-10-19T13:06:45.699Z,1.23
2022-10-19T13:09:25.755Z,3.20
2022-10-19T13:12:28.968Z,7.70
2022-10-19T13:14:59.012Z,3.33
2022-10-19T13:17:43.743Z,2.70
2022-10-19T13:20:49.087Z,1.90
2022-10-19T13:23:39.689Z,1.33
2022-10-19T13:26:33.924Z,2.03
2022-10-19T13:29:02.404Z,4.13
2022-10-19T13:31:33.035Z,1.40
2022-10-19T13:34:01.262Z,3.43
2022-10-19T13:36:29.342Z,3.10
2022-10-19T13:39:08.594Z,6.33
2022-10-19T13:41:56.320Z,1.40
2022-10-19T13:44:27.872Z,5.13
2022-10-19T13:47:18.549Z,1.13
2022-10-19T13:50:11.536Z,5.13
2022-10-19T13:52:51.168Z,7.83
2022-10-19T13:55:35.419Z,1.20
2022-10-19T13:58:24.732Z,2.07
2022-10-19T14:01:06.706Z,2.23
2022-10-19T14:03:51.164Z,2.90
2022-10-19T14:06:28.510Z,1.70
2022-10-19T14:09:16.719Z,2.50
2022-10-19T14:11:48.660Z,0.80
2022-10-19T14:14:19.443Z,1.77
2022-10-19T14:16:50.892Z,2.93
2022-10-19T14:19:28.286Z,2.93
2022-10-19T14:21:58.115Z,2.10
2022-10-19T14:24:31.182Z,2.10
2022-10-19T14:27:03.152Z,3.17
2022-10-19T14:29:34.906Z,2.10
2022-10-19T14:32:04.507Z,2.07
2022-10-19T14:34:32.626Z,1.73
2022-10-19T14:37:00.731Z,2.77
2022-10-19T14:39:34.172Z,4.60
2022-10-19T14:42:06.953Z,5.03
2022-10-19T14:44:40.924Z,1.40
2022-10-19T14:47:20.021Z,3.00
2022-10-19T14:49:48.574Z,2.20
2022-10-19T14:52:24.088Z,4.60
2022-10-19T14:54:57.464Z,2.03
2022-10-19T14:57:30.743Z,4.63
2022-10-19T15:00:01.765Z,6.30
2022-10-19T15:02:33.934Z,2.90
2022-10-19T15:05:05.558Z,1.77
2022-10-19T15:07:38.696Z,3.70
2022-10-19T15:10:09.565Z,11.83
2022-10-19T15:12:41.415Z,2.17
2022-10-19T15:15:12.486Z,2.40
2022-10-19T15:17:52.221Z,3.53
2022-10-19T15:20:27.289Z,3.57
2022-10-19T15:22:56.409Z,2.80
2022-10-19T15:25:32.798Z,2.63
2022-10-19T15:28:34.978Z,6.30
2022-10-19T15:31:08.460Z,4.20
2022-10-19T15:33:40.263Z,2.70
2022-10-19T15:36:16.954Z,5.30
2022-10-19T15:38:46.195Z,2.53
2022-10-19T15:41:19.799Z,3.57
2022-10-19T15:43:51.395Z,6.90
2022-10-19T15:46:28.373Z,9.33
2022-10-19T15:48:57.522Z,2.97
2022-10-19T15:51:37.840Z,2.60
2022-10-19T15:54:07.409Z,7.77
2022-10-19T15:56:37.935Z,3.10
2022-10-19T15:59:12.038Z,3.77
2022-10-19T16:01:40.603Z,3.93
2022-10-19T16:04:08.733Z,4.87
2022-10-19T16:06:39.593Z,3.23
2022-10-19T16:09:08.996Z,3.87
2022-10-19T16:11:37.170Z,2.97
2022-10-19T16:14:05.301Z,2.33
2022-10-19T16:16:36.189Z,1.83
2022-10-19T16:19:04.476Z,2.40
2022-10-19T16:21:35.197Z,3.83
2022-10-19T16:24:03.327Z,5.60
2022-10-19T16:26:32.961Z,2.23
2022-10-19T16:29:02.664Z,2.93
2022-10-19T16:31:31.578Z,10.33
2022-10-19T16:34:01.066Z,3.47
2022-10-19T16:36:29.244Z,2.17
2022-10-19T16:39:01.103Z,3.03
2022-10-19T16:41:29.225Z,27.93
2022-10-19T16:43:58.165Z,8.77
2022-10-19T16:46:29.684Z,2.70
2022-10-19T16:48:57.949Z,10.37
2022-10-19T16:51:30.629Z,7.60
2022-10-19T16:53:59.204Z,2.43
2022-10-19T16:56:29.262Z,3.33
2022-10-19T16:58:59.823Z,7.20
2022-10-19T17:01:29.101Z,3.30
2022-10-19T17:03:57.932Z,3.13
2022-10-19T17:06:28.358Z,5.50
2022-10-19T17:11:47.078Z,3.30
2022-10-19T17:14:15.230Z,2.47
2022-10-19T17:16:43.268Z,3.27
2022-10-19T17:19:12.370Z,3.10
2022-10-19T17:21:42.424Z,3.20
2022-10-19T17:24:20.087Z,2.80
2022-10-19T17:26:50.650Z,3.17
2022-10-19T17:29:19.190Z,2.57
2022-10-19T17:31:47.778Z,2.97
2022-10-19T17:34:16.282Z,3.63
2022-10-19T17:36:46.679Z,2.73
2022-10-19T17:39:17.928Z,2.97
2022-10-19T17:41:46.700Z,9.00
2022-10-19T17:44:15.558Z,6.60
2022-10-19T17:46:44.260Z,4.30
2022-10-19T17:49:13.178Z,3.03
2022-10-19T17:51:41.839Z,2.85
2022-10-19T17:54:14.435Z,3.28
2022-10-19T17:56:45.091Z,7.57
2022-10-19T17:59:13.863Z,3.90
2022-10-19T18:01:42.077Z,3.88
2022-10-19T18:04:10.195Z,3.92
2022-10-19T18:06:39.342Z,9.18
2022-10-19T18:09:09.310Z,3.92
2022-10-19T18:11:41.713Z,4.15
2022-10-19T18:14:11.485Z,3.47
2022-10-19T18:16:41.177Z,3.30
2022-10-19T18:19:10.776Z,11.18
2022-10-19T18:21:41.747Z,5.07
2022-10-19T18:24:15.130Z,11.10
2022-10-19T18:26:45.225Z,4.90
2022-10-19T18:29:16.989Z,4.60
2022-10-19T18:31:49.052Z,5.15
2022-10-19T18:34:17.102Z,5.78
2022-10-19T18:36:45.465Z,5.10
2022-10-19T18:39:15.177Z,11.10
2022-10-19T18:41:44.797Z,5.50
2022-10-19T18:44:14.133Z,5.32
2022-10-19T18:46:42.526Z,6.25
2022-10-19T18:49:12.523Z,6.82
2022-10-19T18:51:40.691Z,6.20
2022-10-19T18:54:09.405Z,5.20
2022-10-19T18:56:37.492Z,8.27
2022-10-19T18:59:07.102Z,9.45
2022-10-19T19:01:35.310Z,6.85
2022-10-19T19:04:07.798Z,7.43
2022-10-19T19:06:36.588Z,5.68
2022-10-19T19:09:07.477Z,6.63
2022-10-19T19:11:38.154Z,4.35
2022-10-19T19:14:11.579Z,5.65
2022-10-19T19:16:40.630Z,10.32
2022-10-19T19:19:12.902Z,8.20
2022-10-19T19:21:43.908Z,5.10
2022-10-19T19:24:14.533Z,5.82
2022-10-19T19:26:44.894Z,10.75
2022-10-19T19:29:14.346Z,5.05
2022-10-19T19:31:42.417Z,4.38
2022-10-19T19:34:10.672Z,5.63
2022-10-19T19:39:09.469Z,7.60
2022-10-19T19:41:37.474Z,10.88
2022-10-19T19:44:05.721Z,5.53
2022-10-19T19:46:35.912Z,5.47
2022-10-19T19:49:05.889Z,4.03
2022-10-19T19:51:35.165Z,6.65
2022-10-19T19:54:03.537Z,5.15
2022-10-19T19:56:31.649Z,4.20
2022-10-19T19:59:03.383Z,4.95
2022-10-19T20:01:31.929Z,4.78
2022-10-19T20:06:31.185Z,4.63
2022-10-19T20:08:59.327Z,4.18
2022-10-19T20:11:29.350Z,4.40
2022-10-19T20:13:58.096Z,7.78
2022-10-19T20:16:29.409Z,5.72
2022-10-19T20:19:02.780Z,5.22
2022-10-19T20:21:31.829Z,5.22
2022-10-19T20:24:00.274Z,3.80
2022-10-19T20:26:28.682Z,4.15
2022-10-19T20:28:56.827Z,6.43
2022-10-19T20:31:25.819Z,3.65
2022-10-19T20:33:54.133Z,5.82
2022-10-19T20:36:25.436Z,3.28
2022-10-19T20:38:56.479Z,5.18
2022-10-19T20:41:27.275Z,5.93
2022-10-19T20:43:56.450Z,3.67
2022-10-19T20:46:26.319Z,4.05
2022-10-19T20:48:56.188Z,4.45
2022-10-19T20:51:30.834Z,2.80
2022-10-19T20:54:01.170Z,3.30
2022-10-19T20:56:36.500Z,8.65
2022-10-19T20:59:09.031Z,4.03
2022-10-19T21:02:01.373Z,5.43
2022-10-19T21:04:35.682Z,4.35
2022-10-19T21:07:18.901Z,3.25
2022-10-19T21:09:54.932Z,4.18
2022-10-19T21:12:38.910Z,4.25
2022-10-19T21:15:42.878Z,4.15
2022-10-19T21:18:29.330Z,5.53
2022-10-19T21:30:18.630Z,6.43
2022-10-19T21:39:13.762Z,3.85
2022-10-19T21:52:16.607Z,7.57
2022-10-19T21:56:11.361Z,4.80
2022-10-19T21:59:02.024Z,6.28
2022-10-19T22:01:47.927Z,3.15
2022-10-19T22:04:38.053Z,4.20
2022-10-19T22:07:45.763Z,2.80
2022-10-19T22:10:29.334Z,4.35
2022-10-19T22:16:46.267Z,3.35
2022-10-19T22:23:30.337Z,3.30
2022-10-19T22:26:46.924Z,3.75
2022-10-19T22:29:33.758Z,4.13
2022-10-19T22:32:24.401Z,4.63
2022-10-19T22:34:59.766Z,4.57
2022-10-19T22:37:37.258Z,3.15
2022-10-19T22:40:12.257Z,5.00
2022-10-19T22:43:14.955Z,3.42
2022-10-19T22:45:50.993Z,4.63
2022-10-19T22:48:21.729Z,5.15
2022-10-19T22:50:53.171Z,3.85
2022-10-19T22:53:24.351Z,2.92
2022-10-19T22:57:39.308Z,5.97
2022-10-19T23:00:37.050Z,9.57
2022-10-19T23:03:17.390Z,3.45
2022-10-19T23:06:32.782Z,3.17
2022-10-19T23:09:34.295Z,7.13
2022-10-19T23:12:10.006Z,3.78
2022-10-19T23:14:38.175Z,3.95
2022-10-19T23:17:07.580Z,8.63
2022-10-19T23:19:38.187Z,4.57
2022-10-19T23:22:06.469Z,3.60
2022-10-19T23:24:34.825Z,7.00
2022-10-19T23:27:03.061Z,5.00
2022-10-19T23:29:31.209Z,4.10
2022-10-19T23:31:59.528Z,3.20
2022-10-19T23:34:29.347Z,3.65
2022-10-19T23:37:02.562Z,3.70
2022-10-19T23:39:30.725Z,8.32
2022-10-19T23:41:58.905Z,4.78
2022-10-19T23:44:31.978Z,3.60
2022-10-19T23:47:00.119Z,4.25
2022-10-19T23:49:29.590Z,4.63
2022-10-19T23:51:57.772Z,3.35
2022-10-19T23:54:26.207Z,9.60
2022-10-19T23:56:59.371Z,11.38
2022-10-19T23:59:27.648Z,4.03
